Time;durP1;ratioP1;P1;durP2;ratioP2;P2;SDS_P1;SDS_P2;PMS_P1;PMS_P2;Temp;Humidity;BMP_temperature;BMP_pressure;BME280_temperature;BME280_humidity;BME280_pressure;Samples;Min_cycle;Max_cycle;Signal;HPM_P1;HPM_P2
2022/04/09 00:00:07;;;;;;;5.90;1.70;;;3.80;99.90;;;;;;5046017;28;20391;-78
2022/04/09 00:02:36;;;;;;;2.03;1.60;;;3.70;99.90;;;;;;5043486;28;20267;-80
2022/04/09 00:05:05;;;;;;;7.47;2.08;;;3.70;99.90;;;;;;5044063;28;20702;-82
2022/04/09 00:07:33;;;;;;;5.60;1.92;;;3.70;99.90;;;;;;5045924;28;20701;-77
2022/04/09 00:10:00;;;;;;;5.65;1.90;;;3.70;99.90;;;;;;5042494;28;20591;-79
2022/04/09 00:12:28;;;;;;;3.90;1.88;;;3.60;99.90;;;;;;5043827;28;20389;-80
2022/04/09 00:14:56;;;;;;;11.20;2.45;;;3.50;99.90;;;;;;5043460;28;20217;-77
2022/04/09 00:17:25;;;;;;;2.92;1.80;;;3.50;99.90;;;;;;5042592;28;20408;-78
2022/04/09 00:19:53;;;;;;;2.50;1.83;;;3.50;99.90;;;;;;5042168;28;20282;-78
2022/04/09 00:22:21;;;;;;;5.25;1.45;;;3.40;99.90;;;;;;5042883;28;20202;-80
2022/04/09 00:24:49;;;;;;;7.15;1.70;;;3.40;99.90;;;;;;5043783;28;20280;-78
2022/04/09 00:27:17;;;;;;;2.00;1.90;;;3.40;99.90;;;;;;5043494;28;20202;-79
2022/04/09 00:29:44;;;;;;;7.47;1.48;;;3.30;99.90;;;;;;5043015;28;20277;-79
2022/04/09 00:32:12;;;;;;;2.20;1.27;;;3.30;99.90;;;;;;5043024;28;20232;-80
2022/04/09 00:34:41;;;;;;;6.13;1.92;;;3.20;99.90;;;;;;5042677;28;20205;-78
2022/04/09 00:37:09;;;;;;;5.32;1.33;;;3.20;99.90;;;;;;5042523;28;20412;-79
2022/04/09 00:39:37;;;;;;;10.18;2.22;;;3.20;99.90;;;;;;5041796;28;20337;-78
2022/04/09 00:42:05;;;;;;;3.30;1.40;;;3.10;99.90;;;;;;5039618;28;20758;-77
2022/04/09 00:44:33;;;;;;;2.42;1.38;;;3.10;99.90;;;;;;5040232;28;20429;-77
2022/04/09 00:47:01;;;;;;;3.63;1.50;;;3.10;99.90;;;;;;5040309;28;20205;-77
2022/04/09 00:49:30;;;;;;;1.67;1.02;;;3.10;99.90;;;;;;5040565;28;20202;-78
2022/04/09 00:52:03;;;;;;;4.47;2.17;;;3.00;99.90;;;;;;5044574;28;20275;-77
2022/04/09 00:54:32;;;;;;;5.65;1.42;;;3.00;99.90;;;;;;5052272;28;20437;-77
2022/04/09 00:57:05;;;;;;;5.03;1.60;;;3.00;99.90;;;;;;5051822;28;20217;-79
2022/04/09 00:59:36;;;;;;;5.05;1.48;;;3.00;99.90;;;;;;5051423;28;20685;-80
2022/04/09 01:02:05;;;;;;;5.47;1.58;;;3.00;99.90;;;;;;5043148;28;20221;-81
2022/04/09 01:04:34;;;;;;;1.90;1.80;;;3.00;99.90;;;;;;5042549;28;20205;-80
2022/04/09 01:07:04;;;;;;;6.43;1.60;;;2.90;99.90;;;;;;5043103;28;20204;-80
2022/04/09 01:09:32;;;;;;;5.93;1.40;;;3.00;99.90;;;;;;5040789;28;20611;-77
2022/04/09 01:12:01;;;;;;;3.35;1.58;;;3.00;99.90;;;;;;5040683;28;20236;-76
2022/04/09 01:14:29;;;;;;;5.55;1.77;;;3.10;99.90;;;;;;5041548;28;20206;-76
2022/04/09 01:16:57;;;;;;;3.05;1.60;;;3.10;99.90;;;;;;5042462;28;20225;-76
2022/04/09 01:19:25;;;;;;;2.05;1.63;;;3.00;99.90;;;;;;5043657;28;20217;-75
2022/04/09 01:21:54;;;;;;;3.28;1.63;;;3.00;99.90;;;;;;5049898;28;20309;-77
2022/04/09 01:24:23;;;;;;;5.05;2.00;;;3.00;99.90;;;;;;5043610;28;20269;-77
2022/04/09 01:26:51;;;;;;;4.10;1.92;;;3.10;99.90;;;;;;5041366;28;20252;-75
2022/04/09 01:29:19;;;;;;;8.13;2.13;;;3.20;99.90;;;;;;5043058;28;20842;-74
2022/04/09 01:31:47;;;;;;;6.90;2.95;;;3.20;99.90;;;;;;5044264;28;20225;-75
2022/04/09 01:34:15;;;;;;;4.57;2.20;;;3.20;99.90;;;;;;5042588;28;20212;-74
2022/04/09 01:36:43;;;;;;;2.65;1.75;;;3.30;99.90;;;;;;5042687;28;20249;-74
2022/04/09 01:39:11;;;;;;;4.97;1.73;;;3.40;99.90;;;;;;5039949;28;20205;-75
2022/04/09 01:41:40;;;;;;;14.68;1.70;;;3.30;99.90;;;;;;5040865;28;20865;-75
2022/04/09 01:44:08;;;;;;;2.17;1.60;;;3.20;99.90;;;;;;5042902;28;20206;-77
2022/04/09 01:46:37;;;;;;;7.60;2.20;;;3.10;99.90;;;;;;5041615;28;20202;-77
2022/04/09 01:49:05;;;;;;;1.48;1.38;;;3.10;99.90;;;;;;5041844;28;20216;-77
2022/04/09 01:51:33;;;;;;;6.45;1.30;;;3.00;99.90;;;;;;5041862;28;20234;-76
2022/04/09 01:54:01;;;;;;;2.35;1.35;;;3.00;99.90;;;;;;5042365;28;20212;-77
2022/04/09 01:56:28;;;;;;;5.63;2.30;;;2.90;99.90;;;;;;5054016;28;20231;-77
2022/04/09 01:58:58;;;;;;;3.85;1.88;;;2.80;99.90;;;;;;5054908;28;20208;-77
2022/04/09 02:01:25;;;;;;;2.55;1.83;;;2.80;99.90;;;;;;5050256;28;20234;-77
2022/04/09 02:03:54;;;;;;;2.88;1.40;;;2.70;99.90;;;;;;5047437;28;20661;-77
2022/04/09 02:06:22;;;;;;;2.88;1.77;;;2.60;99.90;;;;;;5051673;28;20240;-77
2022/04/09 02:08:49;;;;;;;6.15;1.67;;;2.60;99.90;;;;;;5048755;28;20206;-77
2022/04/09 02:11:17;;;;;;;3.33;1.65;;;2.60;99.90;;;;;;5047561;28;20217;-79
2022/04/09 02:13:45;;;;;;;3.95;1.33;;;2.50;99.90;;;;;;5051151;28;20197;-78
2022/04/09 02:16:14;;;;;;;4.22;1.40;;;2.50;99.90;;;;;;5044948;28;20312;-77
2022/04/09 02:18:43;;;;;;;8.00;2.03;;;2.50;99.90;;;;;;5039621;28;20379;-76
2022/04/09 02:21:11;;;;;;;3.15;2.13;;;2.50;99.90;;;;;;5041948;28;20587;-77
2022/04/09 02:23:39;;;;;;;4.13;1.98;;;2.60;99.90;;;;;;5043514;28;20197;-80
2022/04/09 02:26:08;;;;;;;5.78;1.80;;;2.60;99.90;;;;;;5041818;28;20206;-78
2022/04/09 02:28:36;;;;;;;2.40;1.70;;;2.60;99.90;;;;;;5040932;28;20390;-79
2022/04/09 02:31:04;;;;;;;3.05;1.80;;;2.60;99.90;;;;;;5040725;28;20217;-79
2022/04/09 02:33:33;;;;;;;5.45;1.40;;;2.50;99.90;;;;;;5041355;28;20206;-78
2022/04/09 02:36:01;;;;;;;2.28;1.83;;;2.50;99.90;;;;;;5041270;28;20312;-78
2022/04/09 02:38:29;;;;;;;14.50;1.65;;;2.50;99.90;;;;;;5041733;28;20669;-79
2022/04/09 02:40:56;;;;;;;7.03;1.15;;;2.50;99.90;;;;;;5043211;28;20276;-78
2022/04/09 02:43:24;;;;;;;3.08;1.83;;;2.50;99.90;;;;;;5047347;28;20815;-78
2022/04/09 02:45:52;;;;;;;4.97;1.70;;;2.50;99.90;;;;;;5054887;28;20228;-77
2022/04/09 02:48:20;;;;;;;5.75;1.52;;;2.40;99.90;;;;;;5050424;28;20266;-79
2022/04/09 02:50:49;;;;;;;6.95;2.30;;;2.40;99.90;;;;;;5050734;28;20260;-79
2022/04/09 02:53:17;;;;;;;6.05;1.92;;;2.40;99.90;;;;;;5054150;28;20209;-80
2022/04/09 02:55:45;;;;;;;3.25;2.05;;;2.40;99.90;;;;;;5052710;28;20744;-73
2022/04/09 02:58:13;;;;;;;2.65;1.80;;;2.50;99.90;;;;;;5042737;28;20241;-71
2022/04/09 03:00:41;;;;;;;3.55;2.15;;;2.40;99.90;;;;;;5041159;28;20647;-72
2022/04/09 03:03:08;;;;;;;3.97;2.10;;;2.50;99.90;;;;;;5041451;28;20261;-72
2022/04/09 03:05:36;;;;;;;10.70;2.00;;;2.50;99.90;;;;;;5041320;28;20642;-77
2022/04/09 03:08:06;;;;;;;6.13;1.95;;;2.50;99.90;;;;;;5044032;28;20201;-77
2022/04/09 03:10:34;;;;;;;5.57;2.10;;;2.50;99.90;;;;;;5043665;28;20712;-77
2022/04/09 03:13:04;;;;;;;1.90;1.60;;;2.50;99.90;;;;;;5045297;28;20201;-79
2022/04/09 03:15:32;;;;;;;3.47;1.65;;;2.50;99.90;;;;;;5043138;28;20260;-76
2022/04/09 03:18:00;;;;;;;1.58;1.50;;;2.40;99.90;;;;;;5041960;28;20255;-77
2022/04/09 03:20:28;;;;;;;3.05;1.80;;;2.40;99.90;;;;;;5041203;28;20658;-77
2022/04/09 03:22:56;;;;;;;4.47;2.50;;;2.30;99.90;;;;;;5041114;28;20202;-77
2022/04/09 03:25:25;;;;;;;4.63;2.35;;;2.30;99.90;;;;;;5040535;28;20205;-78
2022/04/09 03:27:53;;;;;;;1.52;1.42;;;2.30;99.90;;;;;;5041018;28;20220;-77
2022/04/09 03:30:20;;;;;;;6.97;2.00;;;2.30;99.90;;;;;;5040764;28;20217;-77
2022/04/09 03:32:48;;;;;;;5.65;2.00;;;2.30;99.90;;;;;;5040593;28;20220;-77
2022/04/09 03:35:16;;;;;;;2.92;1.77;;;2.30;99.90;;;;;;5041106;28;20205;-78
2022/04/09 03:37:45;;;;;;;7.10;2.10;;;2.40;99.90;;;;;;5041025;28;20232;-77
2022/04/09 03:40:13;;;;;;;4.88;2.05;;;2.30;99.90;;;;;;5041416;28;20712;-79
2022/04/09 03:42:43;;;;;;;4.75;1.85;;;2.40;99.90;;;;;;5045957;28;20210;-78
2022/04/09 03:45:11;;;;;;;5.38;2.28;;;2.40;99.90;;;;;;5043632;28;20208;-78
2022/04/09 03:47:38;;;;;;;11.18;2.30;;;2.50;99.90;;;;;;5040521;28;20775;-79
2022/04/09 03:50:07;;;;;;;7.53;1.90;;;2.50;99.90;;;;;;5040614;28;20524;-78
2022/04/09 03:52:35;;;;;;;3.85;2.75;;;2.50;99.90;;;;;;5041370;28;20236;-78
2022/04/09 03:55:03;;;;;;;5.72;2.40;;;2.50;99.90;;;;;;5039817;28;20754;-78
2022/04/09 03:57:31;;;;;;;5.60;3.60;;;2.50;99.90;;;;;;5042161;28;20224;-78
2022/04/09 04:00:00;;;;;;;8.68;2.33;;;2.50;99.90;;;;;;5042138;28;20210;-77
2022/04/09 04:02:28;;;;;;;1.90;1.75;;;2.50;99.90;;;;;;5041261;28;20422;-78
2022/04/09 04:05:01;;;;;;;5.65;1.60;;;2.60;99.90;;;;;;5042317;28;20769;-78
2022/04/09 04:07:29;;;;;;;5.32;2.30;;;2.50;99.90;;;;;;5040767;28;20212;-78
2022/04/09 04:10:01;;;;;;;6.28;2.75;;;2.50;99.90;;;;;;5041311;28;21019;-77
2022/04/09 04:12:29;;;;;;;5.47;2.67;;;2.50;99.90;;;;;;5041553;28;20206;-77
2022/04/09 04:14:57;;;;;;;7.05;2.80;;;2.40;99.90;;;;;;5042018;28;20202;-78
2022/04/09 04:17:26;;;;;;;7.82;2.95;;;2.40;99.90;;;;;;5041876;28;20249;-78
2022/04/09 04:19:54;;;;;;;10.25;2.30;;;2.60;99.90;;;;;;5041068;28;20680;-75
2022/04/09 04:22:22;;;;;;;2.85;2.47;;;2.70;99.90;;;;;;5040961;28;20209;-74
2022/04/09 04:24:49;;;;;;;3.53;1.85;;;2.80;99.90;;;;;;5040080;28;20201;-76
2022/04/09 04:27:17;;;;;;;12.02;2.85;;;2.80;99.90;;;;;;5038616;28;20205;-74
2022/04/09 04:29:45;;;;;;;3.67;2.30;;;2.80;99.90;;;;;;5041483;28;20198;-76
2022/04/09 04:32:13;;;;;;;2.95;2.25;;;2.70;99.90;;;;;;5042547;28;20217;-77
2022/04/09 04:34:42;;;;;;;6.63;2.42;;;2.70;99.90;;;;;;5041272;28;20451;-74
2022/04/09 04:37:10;;;;;;;12.57;2.65;;;2.60;99.90;;;;;;5041695;28;20217;-77
2022/04/09 04:39:38;;;;;;;8.00;4.63;;;2.50;99.90;;;;;;5042419;28;20975;-77
2022/04/09 04:42:07;;;;;;;7.05;2.25;;;2.50;99.90;;;;;;5053218;28;20217;-76
2022/04/09 04:44:35;;;;;;;7.45;2.75;;;2.60;99.90;;;;;;5061334;28;20200;-76
2022/04/09 04:47:03;;;;;;;5.03;2.50;;;2.60;99.90;;;;;;5060867;28;20209;-77
2022/04/09 04:49:32;;;;;;;5.97;2.92;;;2.50;99.90;;;;;;5059952;28;20211;-77
2022/04/09 04:52:01;;;;;;;12.18;4.10;;;2.60;99.90;;;;;;5060418;28;20594;-76
2022/04/09 04:54:29;;;;;;;13.05;3.58;;;2.60;99.90;;;;;;5060263;28;20205;-76
2022/04/09 04:56:57;;;;;;;13.45;3.10;;;2.50;99.90;;;;;;5059907;28;20644;-76
2022/04/09 04:59:25;;;;;;;3.67;2.50;;;2.60;99.90;;;;;;5059556;28;20205;-76
2022/04/09 05:01:52;;;;;;;7.70;3.30;;;2.60;99.90;;;;;;5059998;28;20372;-76
2022/04/09 05:04:21;;;;;;;7.47;3.60;;;2.60;99.90;;;;;;5060307;28;20207;-76
2022/04/09 05:06:50;;;;;;;4.57;2.53;;;2.60;99.90;;;;;;5042202;28;20202;-76
2022/04/09 05:09:20;;;;;;;14.77;3.55;;;2.60;99.90;;;;;;5043613;28;20388;-76
2022/04/09 05:11:48;;;;;;;6.93;4.00;;;2.50;99.90;;;;;;5040745;28;20226;-76
2022/04/09 05:14:17;;;;;;;7.97;3.30;;;2.60;99.90;;;;;;5040673;28;20684;-76
2022/04/09 05:16:45;;;;;;;6.35;3.33;;;2.80;99.90;;;;;;5040246;28;20201;-76
2022/04/09 05:19:13;;;;;;;9.93;4.13;;;2.90;99.90;;;;;;5038951;28;20221;-74
2022/04/09 05:21:40;;;;;;;6.55;3.30;;;3.00;99.90;;;;;;5038437;28;20748;-77
2022/04/09 05:24:08;;;;;;;10.13;3.55;;;3.10;99.90;;;;;;5039343;28;20224;-76
2022/04/09 05:26:38;;;;;;;6.00;3.92;;;3.30;99.90;;;;;;5038271;28;20237;-77
2022/04/09 05:29:06;;;;;;;9.30;4.32;;;3.40;99.90;;;;;;5038339;28;20201;-78
2022/04/09 05:31:34;;;;;;;13.07;3.65;;;3.50;99.90;;;;;;5038255;28;20232;-77
2022/04/09 05:34:01;;;;;;;4.72;2.97;;;3.50;99.90;;;;;;5038547;28;20670;-76
2022/04/09 05:36:29;;;;;;;5.68;2.65;;;3.60;99.90;;;;;;5040418;28;20295;-78
2022/04/09 05:38:57;;;;;;;5.90;3.08;;;3.50;99.90;;;;;;5058726;28;20228;-77
2022/04/09 05:41:25;;;;;;;7.25;3.00;;;3.50;99.90;;;;;;5058332;28;20221;-77
2022/04/09 05:43:54;;;;;;;9.85;3.42;;;3.40;99.90;;;;;;5059661;28;20196;-76
2022/04/09 05:46:23;;;;;;;13.45;3.42;;;3.40;99.90;;;;;;5055679;28;20212;-79
2022/04/09 05:48:51;;;;;;;4.50;2.75;;;3.40;99.90;;;;;;5038190;28;20723;-76
2022/04/09 05:51:19;;;;;;;6.28;4.00;;;3.50;99.90;;;;;;5038904;28;20609;-78
2022/04/09 05:53:46;;;;;;;4.55;3.60;;;3.50;99.90;;;;;;5038760;28;20232;-78
2022/04/09 05:56:14;;;;;;;17.63;3.90;;;3.50;99.90;;;;;;5037954;28;20780;-79
2022/04/09 05:58:42;;;;;;;8.65;2.97;;;3.60;99.90;;;;;;5038432;28;20622;-77
2022/04/09 06:01:30;;;;;;;8.93;2.67;;;3.70;99.90;;;;;;5039695;28;20228;-78
2022/04/09 06:03:58;;;;;;;6.50;3.30;;;4.00;99.90;;;;;;5043285;28;20202;-76
2022/04/09 06:06:26;;;;;;;5.05;2.90;;;4.30;99.90;;;;;;5041403;28;20207;-79
2022/04/09 06:08:53;;;;;;;13.98;3.03;;;4.40;99.90;;;;;;5038872;28;20212;-77
2022/04/09 06:11:21;;;;;;;3.00;2.75;;;4.50;99.90;;;;;;5037774;28;20804;-75
2022/04/09 06:13:49;;;;;;;10.00;3.30;;;4.60;99.90;;;;;;5038078;28;20204;-75
2022/04/09 06:16:18;;;;;;;14.50;3.75;;;4.60;99.90;;;;;;5037841;28;20510;-75
2022/04/09 06:18:48;;;;;;;3.38;2.70;;;4.70;99.90;;;;;;5040582;28;20232;-75
2022/04/09 06:21:16;;;;;;;7.82;2.92;;;4.80;99.90;;;;;;5043107;28;20673;-75
2022/04/09 06:23:43;;;;;;;6.43;2.28;;;4.90;99.90;;;;;;5043527;28;20270;-75
2022/04/09 06:26:11;;;;;;;7.70;2.60;;;4.90;99.90;;;;;;5042419;28;20676;-75
2022/04/09 06:28:39;;;;;;;7.78;2.97;;;4.90;99.90;;;;;;5042747;28;20669;-76
2022/04/09 06:31:07;;;;;;;6.40;2.70;;;4.80;99.90;;;;;;5042992;28;20217;-75
2022/04/09 06:33:35;;;;;;;6.25;2.65;;;4.80;99.90;;;;;;5042696;28;20704;-75
2022/04/09 06:36:05;;;;;;;4.43;2.30;;;4.90;99.90;;;;;;5042493;28;20202;-75
2022/04/09 06:38:34;;;;;;;8.07;2.20;;;4.90;99.90;;;;;;5043358;28;20304;-76
2022/04/09 06:41:02;;;;;;;10.32;3.08;;;5.00;99.90;;;;;;5045113;28;20227;-76
2022/04/09 06:43:30;;;;;;;5.18;2.17;;;5.00;99.90;;;;;;5045682;28;20238;-76
2022/04/09 06:45:58;;;;;;;8.10;2.83;;;5.00;99.90;;;;;;5047447;28;20202;-75
2022/04/09 06:48:26;;;;;;;7.95;2.92;;;5.00;99.90;;;;;;5044594;28;20206;-74
2022/04/09 06:50:54;;;;;;;2.97;2.03;;;5.00;99.90;;;;;;5044424;28;20288;-74
2022/04/09 06:53:23;;;;;;;13.07;3.00;;;5.00;99.90;;;;;;5039045;28;20319;-74
2022/04/09 06:55:51;;;;;;;7.75;2.20;;;5.10;99.90;;;;;;5032498;28;20202;-75
2022/04/09 06:58:19;;;;;;;12.38;2.22;;;5.20;99.90;;;;;;5035847;28;20228;-75
2022/04/09 07:00:47;;;;;;;6.30;2.22;;;5.40;99.90;;;;;;5033178;28;20224;-74
2022/04/09 07:03:15;;;;;;;6.93;2.30;;;5.50;99.90;;;;;;5036117;28;20194;-75
2022/04/09 07:05:42;;;;;;;6.15;2.05;;;5.50;99.90;;;;;;5032151;28;20209;-72
2022/04/09 07:08:11;;;;;;;4.68;1.80;;;5.50;99.90;;;;;;5037786;28;20234;-72
2022/04/09 07:10:40;;;;;;;7.82;2.50;;;5.50;99.90;;;;;;5032665;28;20221;-71
2022/04/09 07:13:09;;;;;;;4.72;2.15;;;5.60;99.90;;;;;;5036130;28;20233;-72
2022/04/09 07:15:37;;;;;;;6.55;2.25;;;5.70;99.90;;;;;;5030875;28;20206;-71
2022/04/09 07:18:06;;;;;;;6.90;2.45;;;5.80;99.90;;;;;;5037016;28;20661;-71
2022/04/09 07:20:36;;;;;;;2.38;2.03;;;5.80;99.90;;;;;;5038410;28;20252;-71
2022/04/09 07:23:04;;;;;;;5.70;2.47;;;5.90;99.90;;;;;;5022014;28;20203;-70
2022/04/09 07:25:33;;;;;;;3.22;2.50;;;6.00;99.90;;;;;;5022482;28;20213;-72
2022/04/09 07:28:03;;;;;;;6.10;2.25;;;6.10;99.90;;;;;;5021105;28;20853;-72
2022/04/09 07:30:31;;;;;;;7.00;2.10;;;6.30;99.90;;;;;;5035165;28;20704;-72
2022/04/09 07:32:59;;;;;;;5.55;2.17;;;6.20;99.90;;;;;;5042145;28;20665;-72
2022/04/09 07:35:27;;;;;;;5.40;2.35;;;6.20;99.90;;;;;;5032479;28;20238;-70
2022/04/09 07:37:58;;;;;;;4.07;2.05;;;6.20;99.90;;;;;;5038629;28;20205;-73
2022/04/09 07:40:27;;;;;;;2.53;1.17;;;6.10;99.90;;;;;;5025379;28;20459;-73
2022/04/09 07:42:57;;;;;;;1.95;1.70;;;5.90;99.90;;;;;;5031284;28;20573;-73
2022/04/09 07:45:27;;;;;;;3.72;1.15;;;5.60;99.90;;;;;;5036168;28;20212;-73
2022/04/09 07:47:56;;;;;;;3.40;1.70;;;5.50;99.90;;;;;;5022637;28;20670;-71
2022/04/09 07:50:25;;;;;;;1.80;1.30;;;5.50;99.90;;;;;;5029524;28;20226;-72
2022/04/09 07:52:53;;;;;;;5.53;1.75;;;5.60;99.90;;;;;;5026603;28;20684;-73
2022/04/09 07:55:22;;;;;;;4.32;1.90;;;5.60;99.90;;;;;;5028683;28;20523;-72
2022/04/09 07:57:51;;;;;;;3.00;1.75;;;5.70;99.90;;;;;;5038666;28;20661;-73
2022/04/09 08:00:21;;;;;;;3.85;1.75;;;5.70;99.90;;;;;;5030323;28;20320;-73
2022/04/09 08:02:50;;;;;;;3.88;2.15;;;5.90;99.90;;;;;;5033317;28;20571;-73
2022/04/09 08:05:18;;;;;;;4.53;2.10;;;6.00;99.90;;;;;;5033137;28;20199;-72
2022/04/09 08:07:47;;;;;;;5.05;1.65;;;6.20;99.90;;;;;;5027426;28;20217;-72
2022/04/09 08:10:18;;;;;;;7.40;1.90;;;6.50;99.90;;;;;;5021298;28;20304;-73
2022/04/09 08:12:48;;;;;;;3.38;1.25;;;6.70;99.90;;;;;;5027863;28;20208;-73
2022/04/09 08:15:18;;;;;;;1.98;1.83;;;6.90;99.90;;;;;;5030344;28;20202;-73
2022/04/09 08:17:54;;;;;;;3.08;1.50;;;7.00;99.90;;;;;;5038385;28;20443;-73
2022/04/09 08:20:41;;;;;;;7.38;2.05;;;7.10;99.90;;;;;;5029101;28;20440;-73
2022/04/09 08:23:09;;;;;;;5.35;2.13;;;7.20;99.90;;;;;;5029858;28;20198;-72
2022/04/09 08:25:37;;;;;;;2.88;1.70;;;7.20;99.90;;;;;;5032637;28;20582;-72
2022/04/09 08:28:05;;;;;;;7.65;2.20;;;7.10;99.90;;;;;;5032667;28;20672;-73
2022/04/09 08:30:33;;;;;;;5.32;2.15;;;7.20;99.90;;;;;;5031582;28;20269;-70
2022/04/09 08:33:05;;;;;;;14.10;2.40;;;7.30;99.90;;;;;;5024854;28;20204;-72
2022/04/09 08:35:33;;;;;;;3.50;1.85;;;7.20;99.90;;;;;;5029495;28;20414;-73
2022/04/09 08:38:01;;;;;;;6.47;1.98;;;7.00;99.90;;;;;;5035644;28;20711;-72
2022/04/09 08:40:28;;;;;;;4.82;2.05;;;6.90;99.90;;;;;;5033667;28;20773;-72
2022/04/09 08:42:58;;;;;;;3.92;1.90;;;6.80;99.90;;;;;;5034373;28;20206;-72
2022/04/09 08:45:26;;;;;;;3.63;1.40;;;6.80;99.90;;;;;;5040648;28;20222;-73
2022/04/09 08:47:55;;;;;;;3.92;1.60;;;6.80;99.90;;;;;;5033013;28;20239;-72
2022/04/09 08:50:25;;;;;;;3.00;1.65;;;6.80;99.90;;;;;;5041432;28;20277;-72
2022/04/09 08:52:54;;;;;;;2.55;1.92;;;6.80;99.90;;;;;;5030572;28;20224;-72
2022/04/09 08:55:22;;;;;;;6.38;1.35;;;6.70;99.90;;;;;;5032260;28;20216;-71
2022/04/09 08:57:50;;;;;;;6.13;1.20;;;6.70;99.90;;;;;;5038368;28;20202;-70
2022/04/09 09:00:19;;;;;;;9.02;1.80;;;6.80;99.90;;;;;;5031980;28;20222;-71
2022/04/09 09:02:56;;;;;;;1.70;1.33;;;6.90;99.90;;;;;;5035126;28;20410;-76
2022/04/09 09:05:34;;;;;;;4.70;1.63;;;7.00;99.90;;;;;;5039757;28;20221;-73
2022/04/09 09:08:02;;;;;;;2.00;1.00;;;7.10;99.90;;;;;;5027991;28;20224;-73
2022/04/09 09:10:31;;;;;;;2.55;1.45;;;7.20;99.90;;;;;;5036050;28;20308;-72
2022/04/09 09:13:01;;;;;;;2.15;0.95;;;7.30;99.90;;;;;;5019633;28;20761;-71
2022/04/09 09:15:29;;;;;;;4.20;1.17;;;7.30;99.90;;;;;;5028976;28;20233;-71
2022/04/09 09:17:58;;;;;;;2.92;1.00;;;7.40;99.90;;;;;;5024984;28;20202;-71
2022/04/09 09:20:27;;;;;;;6.03;1.92;;;7.60;99.90;;;;;;5033363;28;20229;-72
2022/04/09 09:22:56;;;;;;;4.78;1.60;;;7.80;99.90;;;;;;5037276;28;20869;-72
2022/04/09 09:25:24;;;;;;;4.50;1.80;;;8.00;99.90;;;;;;5039649;28;20209;-71
2022/04/09 09:27:58;;;;;;;6.32;1.73;;;8.20;99.90;;;;;;5030048;28;20208;-71
2022/04/09 09:30:26;;;;;;;8.65;2.03;;;8.30;99.90;;;;;;5036429;28;20515;-71
2022/04/09 09:33:07;;;;;;;6.68;1.42;;;8.20;99.90;;;;;;5038447;28;20300;-72
2022/04/09 09:35:56;;;;;;;2.45;1.13;;;7.60;99.90;;;;;;5040311;28;20201;-68
2022/04/09 09:38:27;;;;;;;1.48;1.30;;;7.30;99.90;;;;;;5040153;28;20209;-72
2022/04/09 09:40:57;;;;;;;3.75;1.05;;;7.20;99.90;;;;;;5039646;28;20489;-73
2022/04/09 09:43:26;;;;;;;5.05;1.60;;;7.20;99.90;;;;;;5040916;28;20212;-73
2022/04/09 09:45:55;;;;;;;4.13;1.10;;;7.20;99.90;;;;;;5041371;28;20206;-72
2022/04/09 09:48:25;;;;;;;3.28;1.20;;;7.30;99.90;;;;;;5040497;28;20834;-72
2022/04/09 09:50:54;;;;;;;3.15;1.27;;;7.40;99.90;;;;;;5040125;28;20727;-73
2022/04/09 09:53:32;;;;;;;6.72;1.20;;;7.50;99.90;;;;;;5042000;28;20446;-72
2022/04/09 09:56:02;;;;;;;3.53;1.27;;;7.70;99.90;;;;;;5044133;28;20440;-72
2022/04/09 09:58:31;;;;;;;1.40;0.80;;;7.90;99.90;;;;;;5042332;28;20190;-73
2022/04/09 10:01:17;;;;;;;8.77;1.23;;;7.90;99.90;;;;;;5042374;28;20221;-72
2022/04/09 10:03:46;;;;;;;2.90;1.23;;;8.00;99.90;;;;;;5043356;28;20228;-74
2022/04/09 10:06:14;;;;;;;2.35;0.90;;;7.90;99.90;;;;;;5040905;28;20205;-73
2022/04/09 10:08:44;;;;;;;2.85;1.17;;;7.80;99.90;;;;;;5042796;28;20201;-72
2022/04/09 10:11:12;;;;;;;2.83;0.90;;;7.60;99.90;;;;;;5041366;28;20714;-72
2022/04/09 10:13:43;;;;;;;3.33;0.90;;;7.40;99.90;;;;;;5042561;28;20193;-70
2022/04/09 10:16:12;;;;;;;2.58;0.60;;;7.20;99.90;;;;;;5041902;28;20290;-71
2022/04/09 10:18:40;;;;;;;1.85;1.30;;;7.00;99.90;;;;;;5042706;28;20237;-71
2022/04/09 10:21:09;;;;;;;7.63;1.40;;;7.00;99.90;;;;;;5041628;28;20764;-71
2022/04/09 10:23:37;;;;;;;4.85;1.10;;;7.00;99.90;;;;;;5037095;28;20513;-71
2022/04/09 10:26:06;;;;;;;5.78;1.05;;;7.00;99.90;;;;;;5042632;28;20216;-72
2022/04/09 10:28:38;;;;;;;3.15;1.10;;;7.00;99.90;;;;;;5042584;28;20899;-78
2022/04/09 10:31:34;;;;;;;2.00;1.38;;;7.20;99.90;;;;;;5040329;28;20218;-72
2022/04/09 10:34:04;;;;;;;2.42;1.33;;;7.40;99.90;;;;;;5039839;28;20198;-70
2022/04/09 10:36:59;;;;;;;3.13;1.27;;;7.70;99.90;;;;;;5042022;28;20367;-74
2022/04/09 10:39:29;;;;;;;2.88;1.10;;;8.00;99.90;;;;;;5040456;28;20563;-72
2022/04/09 10:41:59;;;;;;;5.25;1.63;;;8.00;99.90;;;;;;5039023;28;20229;-73
2022/04/09 10:44:52;;;;;;;3.90;1.17;;;7.80;99.90;;;;;;5039850;28;20201;-72
2022/04/09 10:47:20;;;;;;;5.35;1.20;;;7.30;99.90;;;;;;5042545;28;20479;-73
2022/04/09 10:50:11;;;;;;;4.45;1.25;;;6.60;99.90;;;;;;5046854;28;20687;-76
2022/04/09 10:52:41;;;;;;;2.67;1.10;;;6.10;99.90;;;;;;5035015;28;20205;-78
2022/04/09 10:55:31;;;;;;;1.63;1.10;;;5.70;99.90;;;;;;5039062;28;20684;-74
2022/04/09 10:58:08;;;;;;;7.13;0.98;;;5.50;99.90;;;;;;5035970;28;20654;-73
2022/04/09 11:00:37;;;;;;;6.13;1.52;;;5.30;99.90;;;;;;5036684;28;20249;-74
2022/04/09 11:03:31;;;;;;;1.65;0.70;;;5.10;99.90;;;;;;5034167;28;20794;-74
2022/04/09 11:06:32;;;;;;;1.45;0.85;;;5.10;99.90;;;;;;5030050;28;20231;-72
2022/04/09 11:09:00;;;;;;;5.45;1.27;;;5.00;99.90;;;;;;5025139;28;20213;-73
2022/04/09 11:11:28;;;;;;;3.10;0.57;;;5.00;99.90;;;;;;5033532;28;20222;-76
2022/04/09 11:13:57;;;;;;;3.15;1.20;;;5.10;99.90;;;;;;5041223;28;20516;-73
2022/04/09 11:16:32;;;;;;;2.85;0.95;;;5.30;99.90;;;;;;5022219;28;20218;-72
2022/04/09 11:19:01;;;;;;;5.97;1.65;;;5.50;99.90;;;;;;5032327;28;20471;-74
2022/04/09 11:21:30;;;;;;;3.67;0.93;;;5.90;99.90;;;;;;5041384;28;20226;-72
2022/04/09 11:24:08;;;;;;;5.00;1.40;;;6.30;99.90;;;;;;5041127;28;20768;-73
2022/04/09 11:26:36;;;;;;;7.43;1.50;;;6.80;99.90;;;;;;5040411;28;20201;-72
2022/04/09 11:29:12;;;;;;;8.38;1.13;;;7.20;99.90;;;;;;5041047;28;20232;-71
2022/04/09 11:31:47;;;;;;;2.55;1.40;;;7.60;99.90;;;;;;5040194;28;20252;-72
2022/04/09 11:34:15;;;;;;;8.68;1.50;;;7.90;99.90;;;;;;5039877;28;20271;-74
2022/04/09 11:36:43;;;;;;;5.90;1.20;;;8.10;99.90;;;;;;5041240;28;20248;-74
2022/04/09 11:39:11;;;;;;;7.05;1.30;;;8.30;99.90;;;;;;5040430;28;20198;-74
2022/04/09 11:41:39;;;;;;;4.75;0.93;;;8.40;99.90;;;;;;5040525;28;20758;-73
2022/04/09 11:44:07;;;;;;;7.80;2.25;;;8.60;99.90;;;;;;5037587;28;20204;-72
2022/04/09 11:46:46;;;;;;;8.35;1.50;;;8.70;99.90;;;;;;5035716;28;20300;-74
2022/04/09 11:49:15;;;;;;;4.35;1.23;;;8.80;99.90;;;;;;5038162;28;20206;-73
2022/04/09 11:51:54;;;;;;;4.85;1.23;;;9.00;99.90;;;;;;5039171;28;20450;-75
2022/04/09 11:54:24;;;;;;;3.17;1.50;;;9.10;99.90;;;;;;5038267;28;20799;-73
2022/04/09 11:56:52;;;;;;;2.72;1.67;;;9.20;99.90;;;;;;5036556;28;20268;-72
2022/04/09 11:59:20;;;;;;;5.75;1.30;;;9.10;99.90;;;;;;5038281;28;20272;-71
2022/04/09 12:01:51;;;;;;;11.38;1.70;;;8.90;99.90;;;;;;5037631;28;20230;-73
2022/04/09 12:04:20;;;;;;;5.65;1.45;;;8.60;99.90;;;;;;5026612;28;20206;-76
2022/04/09 12:06:48;;;;;;;7.53;1.50;;;8.50;99.90;;;;;;5038696;28;20233;-73
2022/04/09 12:09:16;;;;;;;14.63;2.72;;;8.50;99.90;;;;;;5028181;28;20249;-73
2022/04/09 12:11:51;;;;;;;5.88;2.03;;;8.40;99.90;;;;;;5021981;28;20221;-73
2022/04/09 12:14:21;;;;;;;8.20;2.15;;;8.30;99.90;;;;;;5025902;28;20789;-71
2022/04/09 12:16:50;;;;;;;6.57;1.17;;;8.20;99.90;;;;;;5029107;28;20232;-71
2022/04/09 12:19:28;;;;;;;14.43;2.53;;;8.20;99.90;;;;;;5024667;28;20569;-74
2022/04/09 12:22:17;;;;;;;17.58;3.67;;;8.20;99.90;;;;;;5028337;28;20220;-71
2022/04/09 12:24:50;;;;;;;7.05;2.20;;;8.30;99.90;;;;;;5029140;28;20393;-73
2022/04/09 12:27:42;;;;;;;5.65;1.45;;;8.50;99.90;;;;;;5021189;28;20212;-72
2022/04/09 12:30:11;;;;;;;5.68;2.17;;;8.60;99.90;;;;;;5023114;28;20203;-71
2022/04/09 12:32:41;;;;;;;7.72;2.10;;;8.70;99.90;;;;;;5035156;28;20197;-72
2022/04/09 12:35:11;;;;;;;4.85;2.08;;;8.90;99.90;;;;;;5025540;28;20262;-72
2022/04/09 12:37:45;;;;;;;9.80;2.20;;;9.10;99.90;;;;;;5040330;28;20539;-73
2022/04/09 12:40:15;;;;;;;6.50;2.33;;;9.20;99.90;;;;;;5036581;28;20201;-72
2022/04/09 12:42:43;;;;;;;9.02;2.60;;;9.40;99.90;;;;;;5040741;28;20232;-72
2022/04/09 12:45:13;;;;;;;6.95;2.60;;;9.40;99.90;;;;;;5032476;28;20328;-72
2022/04/09 12:47:51;;;;;;;8.38;2.85;;;9.40;99.90;;;;;;5032494;28;20263;-72
2022/04/09 12:50:25;;;;;;;10.35;3.33;;;9.30;99.90;;;;;;5024526;28;20233;-72
2022/04/09 12:52:53;;;;;;;11.80;2.70;;;9.20;99.90;;;;;;5020523;28;20680;-72
2022/04/09 12:55:23;;;;;;;19.75;3.10;;;9.20;99.90;;;;;;5030412;28;20198;-74
2022/04/09 12:57:52;;;;;;;12.77;2.70;;;9.30;99.90;;;;;;5034532;28;20261;-72
2022/04/09 13:00:21;;;;;;;10.23;2.25;;;9.20;99.90;;;;;;5034669;28;20221;-70
2022/04/09 13:02:51;;;;;;;12.25;3.53;;;8.80;99.90;;;;;;5021574;28;20222;-71
2022/04/09 13:05:19;;;;;;;5.78;1.90;;;8.60;99.90;;;;;;5031736;28;20203;-72
2022/04/09 13:07:49;;;;;;;6.30;2.35;;;8.40;99.90;;;;;;5020841;28;20206;-72